createdAt,value
2016-11-18T00:00:50.877Z,958.9
2016-11-18T00:01:50.838Z,958.84
2016-11-18T00:02:50.800Z,958.83
2016-11-18T00:03:50.759Z,958.8
2016-11-18T00:04:50.721Z,958.75
2016-11-18T00:05:50.678Z,958.75
2016-11-18T00:06:50.641Z,958.78
2016-11-18T00:07:50.602Z,958.79
2016-11-18T00:08:50.562Z,958.78
2016-11-18T00:09:50.524Z,958.73
2016-11-18T00:10:50.485Z,958.74
2016-11-18T00:11:50.444Z,958.69
2016-11-18T00:12:50.405Z,958.67
2016-11-18T00:13:50.366Z,958.69
2016-11-18T00:14:50.325Z,958.72
2016-11-18T00:15:50.288Z,958.69
2016-11-18T00:16:50.247Z,958.68
2016-11-18T00:17:50.210Z,958.66
2016-11-18T00:18:50.172Z,958.66
2016-11-18T00:19:50.130Z,958.61
2016-11-18T00:20:50.090Z,958.67
2016-11-18T00:21:50.052Z,958.68
2016-11-18T00:22:50.012Z,958.68
2016-11-18T00:23:49.974Z,958.69
2016-11-18T00:24:49.933Z,958.67
2016-11-18T00:25:49.895Z,958.7
2016-11-18T00:26:49.855Z,958.68
2016-11-18T00:27:49.815Z,958.67
2016-11-18T00:28:49.777Z,958.68
2016-11-18T00:29:49.738Z,958.68
2016-11-18T00:30:49.699Z,958.67
2016-11-18T00:31:49.659Z,958.63
2016-11-18T00:32:49.619Z,958.62
2016-11-18T00:33:49.583Z,958.6
2016-11-18T00:34:49.542Z,958.6
2016-11-18T00:35:49.504Z,958.56
2016-11-18T00:36:49.464Z,958.61
2016-11-18T00:37:49.425Z,958.57
2016-11-18T00:38:49.385Z,958.55
2016-11-18T00:39:49.346Z,958.53
2016-11-18T00:40:49.307Z,958.5
2016-11-18T00:41:49.267Z,958.52
2016-11-18T00:42:49.229Z,958.53
2016-11-18T00:43:49.189Z,958.53
2016-11-18T00:44:49.151Z,958.54
2016-11-18T00:45:49.111Z,958.54
2016-11-18T00:46:49.072Z,958.54
2016-11-18T00:47:49.033Z,958.48
2016-11-18T00:48:48.994Z,958.44
2016-11-18T00:49:48.953Z,958.49
2016-11-18T00:50:48.915Z,958.44
2016-11-18T00:51:48.876Z,958.45
2016-11-18T00:52:48.837Z,958.4
2016-11-18T00:53:48.798Z,958.34
2016-11-18T00:54:48.760Z,958.34
2016-11-18T00:55:48.720Z,958.29
2016-11-18T00:56:48.680Z,958.25
2016-11-18T00:57:48.640Z,958.22
2016-11-18T00:58:48.603Z,958.2
2016-11-18T00:59:48.564Z,958.14
2016-11-18T01:00:48.523Z,958.09
2016-11-18T01:01:48.485Z,958.11
2016-11-18T01:02:48.446Z,958.11
2016-11-18T01:03:48.405Z,958.01
2016-11-18T01:04:48.368Z,958.03
2016-11-18T01:05:48.329Z,958.02
2016-11-18T01:06:48.289Z,958.03
2016-11-18T01:07:48.248Z,958.04
2016-11-18T01:08:48.211Z,958.09
2016-11-18T01:09:48.171Z,958.02
2016-11-18T01:10:48.132Z,958.04
2016-11-18T01:11:48.093Z,958.06
2016-11-18T01:12:48.050Z,958.04
2016-11-18T01:13:48.013Z,958.14
2016-11-18T01:14:47.973Z,958.14
2016-11-18T01:15:47.933Z,958.17
2016-11-18T01:16:47.894Z,958.21
2016-11-18T01:17:47.855Z,958.21
2016-11-18T01:18:47.814Z,958.13
2016-11-18T01:19:47.776Z,958.11
2016-11-18T01:20:47.736Z,958.1
2016-11-18T01:21:47.697Z,958.11
2016-11-18T01:22:47.657Z,958.09
2016-11-18T01:23:47.619Z,958.04
2016-11-18T01:24:47.578Z,958.03
2016-11-18T01:25:47.538Z,958.07
2016-11-18T01:26:47.498Z,958.08
2016-11-18T01:27:47.464Z,958.06
2016-11-18T01:28:47.420Z,958.11
2016-11-18T01:29:47.380Z,958.08
2016-11-18T01:30:47.342Z,958.02
2016-11-18T01:31:47.302Z,958.07
2016-11-18T01:32:47.261Z,958.05
2016-11-18T01:33:47.220Z,958.11
2016-11-18T01:34:47.182Z,958.09
2016-11-18T01:35:47.143Z,958.11
2016-11-18T01:36:47.103Z,958.01
2016-11-18T01:37:47.063Z,958.01
2016-11-18T01:38:47.029Z,957.98
2016-11-18T01:39:46.986Z,958.11
2016-11-18T01:40:46.943Z,958.13
2016-11-18T01:41:46.905Z,958.12
2016-11-18T01:42:46.865Z,958.14
2016-11-18T01:43:46.825Z,958.25
2016-11-18T01:44:46.784Z,958.19
2016-11-18T01:45:46.745Z,958.14
2016-11-18T01:46:46.707Z,958.07
2016-11-18T01:47:46.669Z,958.02
2016-11-18T01:48:46.627Z,958
2016-11-18T01:49:46.585Z,957.91
2016-11-18T01:50:46.545Z,957.86
2016-11-18T01:51:46.508Z,957.91
2016-11-18T01:52:46.466Z,957.89
2016-11-18T01:53:46.427Z,957.71
2016-11-18T01:54:46.388Z,957.52
2016-11-18T01:55:46.348Z,957.62
2016-11-18T01:56:46.311Z,957.81
2016-11-18T01:57:46.269Z,957.84
2016-11-18T01:58:46.228Z,957.79
2016-11-18T01:59:46.188Z,957.79
2016-11-18T02:00:46.149Z,957.83
2016-11-18T02:01:46.109Z,957.86
2016-11-18T02:02:46.067Z,957.84
2016-11-18T02:03:46.027Z,957.76
2016-11-18T02:04:45.989Z,957.78
2016-11-18T02:05:45.949Z,957.75
2016-11-18T02:06:45.909Z,957.67
2016-11-18T02:07:45.869Z,957.56
2016-11-18T02:08:45.829Z,957.52
2016-11-18T02:09:45.789Z,957.55
2016-11-18T02:10:45.749Z,957.61
2016-11-18T02:11:45.709Z,957.56
2016-11-18T02:12:45.669Z,957.51
2016-11-18T02:13:45.629Z,957.49
2016-11-18T02:14:45.588Z,957.42
2016-11-18T02:15:45.549Z,957.42
2016-11-18T02:16:45.511Z,957.4
2016-11-18T02:17:45.469Z,957.49
2016-11-18T02:18:45.428Z,957.5
2016-11-18T02:19:45.389Z,957.54
2016-11-18T02:20:45.348Z,957.61
2016-11-18T02:21:45.308Z,957.62
2016-11-18T02:22:45.269Z,957.57
2016-11-18T02:23:45.230Z,957.56
2016-11-18T02:24:45.190Z,957.59
2016-11-18T02:25:45.149Z,957.65
2016-11-18T02:26:45.110Z,957.67
2016-11-18T02:27:45.070Z,957.55
2016-11-18T02:28:45.031Z,957.61
2016-11-18T02:29:44.993Z,957.65
2016-11-18T02:30:44.954Z,957.63
2016-11-18T02:31:44.911Z,957.55
2016-11-18T02:32:44.871Z,957.56
2016-11-18T02:33:44.831Z,957.58
2016-11-18T02:34:44.792Z,957.57
2016-11-18T02:35:44.752Z,957.52
2016-11-18T02:36:44.711Z,957.44
2016-11-18T02:37:44.672Z,957.36
2016-11-18T02:38:44.632Z,957.41
2016-11-18T02:39:44.592Z,957.41
2016-11-18T02:40:44.553Z,957.31
2016-11-18T02:41:44.514Z,957.23
2016-11-18T02:42:44.473Z,957.13
2016-11-18T02:43:44.433Z,957
2016-11-18T02:44:44.395Z,956.88
2016-11-18T02:45:44.355Z,956.81
2016-11-18T02:46:44.313Z,956.77
2016-11-18T02:47:44.275Z,956.72
2016-11-18T02:48:44.235Z,956.84
2016-11-18T02:49:44.195Z,956.81
2016-11-18T02:50:44.153Z,956.86
2016-11-18T02:51:44.115Z,956.83
2016-11-18T02:52:44.075Z,956.82
2016-11-18T02:53:44.035Z,956.64
2016-11-18T02:54:43.995Z,956.62
2016-11-18T02:55:43.956Z,956.63
2016-11-18T02:56:43.916Z,956.53
2016-11-18T02:57:43.877Z,956.6
2016-11-18T02:58:43.838Z,956.62
2016-11-18T02:59:43.796Z,956.73
2016-11-18T03:00:43.756Z,956.81
2016-11-18T03:01:43.718Z,956.88
2016-11-18T03:02:43.676Z,956.88
2016-11-18T03:03:43.638Z,956.89
2016-11-18T03:04:43.598Z,956.86
2016-11-18T03:05:43.559Z,956.79
2016-11-18T03:06:43.518Z,956.71
2016-11-18T03:07:43.480Z,956.75
2016-11-18T03:08:43.439Z,956.8
2016-11-18T03:09:43.407Z,956.86
2016-11-18T03:10:43.359Z,956.83
2016-11-18T03:11:43.319Z,956.72
2016-11-18T03:12:43.281Z,956.71
2016-11-18T03:13:43.241Z,956.76
2016-11-18T03:14:43.201Z,956.75
2016-11-18T03:15:43.162Z,956.77
2016-11-18T03:16:43.123Z,956.73
2016-11-18T03:17:43.085Z,956.68
2016-11-18T03:18:43.046Z,956.63
2016-11-18T03:19:43.003Z,956.65
2016-11-18T03:20:42.965Z,956.67
2016-11-18T03:21:42.927Z,956.69
2016-11-18T03:22:42.887Z,956.72
2016-11-18T03:23:42.846Z,956.76
2016-11-18T03:24:42.808Z,956.76
2016-11-18T03:25:42.770Z,956.71
2016-11-18T03:26:42.729Z,956.7
2016-11-18T03:27:42.690Z,956.73
2016-11-18T03:28:42.651Z,956.77
2016-11-18T03:29:42.612Z,956.73
2016-11-18T03:30:42.572Z,956.77
2016-11-18T03:31:42.533Z,956.77
2016-11-18T03:32:42.495Z,956.79
2016-11-18T03:33:42.455Z,956.76
2016-11-18T03:34:42.412Z,956.71
2016-11-18T03:35:42.376Z,956.64
2016-11-18T03:36:42.338Z,956.69
2016-11-18T03:37:42.297Z,956.68
2016-11-18T03:38:42.259Z,956.7
2016-11-18T03:39:42.219Z,956.72
2016-11-18T03:40:42.181Z,956.73
2016-11-18T03:41:42.140Z,956.72
2016-11-18T03:42:42.103Z,956.57
2016-11-18T03:43:42.064Z,956.62
2016-11-18T03:44:42.023Z,956.61
2016-11-18T03:45:41.983Z,956.62
2016-11-18T03:46:41.945Z,956.67
2016-11-18T03:47:41.905Z,956.67
2016-11-18T03:48:41.866Z,956.7
2016-11-18T03:49:41.828Z,956.66
2016-11-18T03:50:41.788Z,956.71
2016-11-18T03:51:41.751Z,956.63
2016-11-18T03:52:41.710Z,956.66
2016-11-18T03:53:41.670Z,956.58
2016-11-18T03:54:41.631Z,956.57
2016-11-18T03:55:41.591Z,956.62
2016-11-18T03:56:41.552Z,956.64
2016-11-18T03:57:41.513Z,956.66
2016-11-18T03:58:41.474Z,956.61
2016-11-18T03:59:41.433Z,956.58
2016-11-18T04:00:41.398Z,956.6
2016-11-18T04:01:41.356Z,956.64
2016-11-18T04:02:41.316Z,956.71
2016-11-18T04:03:41.277Z,956.69
2016-11-18T04:04:41.238Z,956.68
2016-11-18T04:05:41.199Z,956.7
2016-11-18T04:06:41.161Z,956.67
2016-11-18T04:07:41.120Z,956.71
2016-11-18T04:08:41.081Z,956.74
2016-11-18T04:09:41.043Z,956.82
2016-11-18T04:10:41.004Z,956.84
2016-11-18T04:11:40.963Z,956.82
2016-11-18T04:12:40.924Z,956.82
2016-11-18T04:13:40.887Z,956.74
2016-11-18T04:14:40.846Z,956.75
2016-11-18T04:15:40.807Z,956.69
2016-11-18T04:16:40.769Z,956.6
2016-11-18T04:17:40.728Z,956.65
2016-11-18T04:18:40.689Z,956.71
2016-11-18T04:19:40.649Z,956.77
2016-11-18T04:20:40.610Z,956.83
2016-11-18T04:21:40.570Z,956.89
2016-11-18T04:22:40.532Z,956.89
2016-11-18T04:23:40.493Z,957
2016-11-18T04:24:40.452Z,957.03
2016-11-18T04:25:40.414Z,957.04
2016-11-18T04:26:40.376Z,957.07
2016-11-18T04:27:40.336Z,957.09
2016-11-18T04:28:40.295Z,957.07
2016-11-18T04:29:40.256Z,957.04
2016-11-18T04:30:40.218Z,957.01
2016-11-18T04:31:40.179Z,956.94
2016-11-18T04:32:40.139Z,956.94
2016-11-18T04:33:40.099Z,956.95
2016-11-18T04:34:40.061Z,956.96
2016-11-18T04:35:40.021Z,956.94
2016-11-18T04:36:39.982Z,956.93
2016-11-18T04:37:39.942Z,956.92
2016-11-18T04:38:39.902Z,956.99
2016-11-18T04:39:39.862Z,956.97
2016-11-18T04:40:39.824Z,956.98
2016-11-18T04:41:39.786Z,956.96
2016-11-18T04:42:39.747Z,956.95
2016-11-18T04:43:39.707Z,956.96
2016-11-18T04:44:39.667Z,956.91
2016-11-18T04:45:39.629Z,956.86
2016-11-18T04:46:39.593Z,956.85
2016-11-18T04:47:39.551Z,956.91
2016-11-18T04:48:39.511Z,956.9
2016-11-18T04:49:39.472Z,956.86
2016-11-18T04:50:39.432Z,956.9
2016-11-18T04:51:39.393Z,956.94
2016-11-18T04:52:39.356Z,956.88
2016-11-18T04:53:39.314Z,956.83
2016-11-18T04:54:39.275Z,956.83
2016-11-18T04:55:39.237Z,956.86
2016-11-18T04:56:39.197Z,956.87
2016-11-18T04:57:39.159Z,956.88
2016-11-18T04:58:39.119Z,956.86
2016-11-18T04:59:39.080Z,956.87
2016-11-18T05:00:39.042Z,956.85
2016-11-18T05:01:39.001Z,956.84
2016-11-18T05:02:38.963Z,956.83
2016-11-18T05:03:38.923Z,956.78
2016-11-18T05:04:38.898Z,956.75
2016-11-18T05:05:38.845Z,956.74
2016-11-18T05:06:38.829Z,956.72
2016-11-18T05:07:38.766Z,956.65
2016-11-18T05:08:38.727Z,956.64
2016-11-18T05:09:38.688Z,956.72
2016-11-18T05:10:38.648Z,956.75
2016-11-18T05:11:38.611Z,956.79
2016-11-18T05:12:38.571Z,956.78
2016-11-18T05:13:38.533Z,956.72
2016-11-18T05:14:38.501Z,956.72
2016-11-18T05:15:38.454Z,956.64
2016-11-18T05:16:38.415Z,956.64
2016-11-18T05:17:38.377Z,956.59
2016-11-18T05:18:38.338Z,956.59
2016-11-18T05:19:38.299Z,956.6
2016-11-18T05:20:38.260Z,956.66
2016-11-18T05:21:38.221Z,956.61
2016-11-18T05:22:38.183Z,956.63
2016-11-18T05:23:38.143Z,956.61
2016-11-18T05:24:38.105Z,956.5
2016-11-18T05:25:38.066Z,956.54
2016-11-18T05:26:38.028Z,956.51
2016-11-18T05:27:37.989Z,956.48
2016-11-18T05:28:37.952Z,956.45
2016-11-18T05:29:37.911Z,956.46
2016-11-18T05:30:37.871Z,956.5
2016-11-18T05:31:37.833Z,956.51
2016-11-18T05:32:37.794Z,956.47
2016-11-18T05:33:37.757Z,956.4
2016-11-18T05:34:37.718Z,956.4
2016-11-18T05:35:37.680Z,956.41
2016-11-18T05:36:37.640Z,956.44
2016-11-18T05:37:37.603Z,956.44
2016-11-18T05:38:37.564Z,956.39
2016-11-18T05:39:37.526Z,956.35
2016-11-18T05:40:37.487Z,956.38
2016-11-18T05:41:37.448Z,956.4
2016-11-18T05:42:37.409Z,956.41
2016-11-18T05:43:37.371Z,956.39
2016-11-18T05:44:37.334Z,956.44
2016-11-18T05:45:37.294Z,956.41
2016-11-18T05:46:37.255Z,956.43
2016-11-18T05:47:37.217Z,956.45
2016-11-18T05:48:37.177Z,956.41
2016-11-18T05:49:37.140Z,956.43
2016-11-18T05:50:37.102Z,956.46
2016-11-18T05:51:37.064Z,956.42
2016-11-18T05:52:37.024Z,956.4
2016-11-18T05:53:36.989Z,956.4
2016-11-18T05:54:36.947Z,956.42
2016-11-18T05:55:36.910Z,956.35
2016-11-18T05:56:36.870Z,956.3
2016-11-18T05:57:36.833Z,956.3
2016-11-18T05:58:36.794Z,956.43
2016-11-18T05:59:36.755Z,956.38
2016-11-18T06:00:36.719Z,956.21
2016-11-18T06:01:36.680Z,956.32
2016-11-18T06:02:36.641Z,956.5
2016-11-18T06:03:36.601Z,956.43
2016-11-18T06:04:36.565Z,956.41
2016-11-18T06:05:36.526Z,956.37
2016-11-18T06:06:36.490Z,956.36
2016-11-18T06:07:36.451Z,956.36
2016-11-18T06:08:36.411Z,956.35
2016-11-18T06:09:36.375Z,956.33
2016-11-18T06:10:36.335Z,956.35
2016-11-18T06:11:36.299Z,956.29
2016-11-18T06:12:36.259Z,956.28
2016-11-18T06:13:36.221Z,956.3
2016-11-18T06:14:36.183Z,956.32
2016-11-18T06:15:36.146Z,956.26
2016-11-18T06:16:36.108Z,956.3
2016-11-18T06:17:36.070Z,956.36
2016-11-18T06:18:36.038Z,956.32
2016-11-18T06:19:35.994Z,956.39
2016-11-18T06:20:35.956Z,956.34
2016-11-18T06:21:35.917Z,956.34
2016-11-18T06:22:35.880Z,956.37
2016-11-18T06:23:35.844Z,956.43
2016-11-18T06:24:35.805Z,956.47
2016-11-18T06:25:35.769Z,956.47
2016-11-18T06:26:35.728Z,956.44
2016-11-18T06:27:35.694Z,956.54
2016-11-18T06:28:35.657Z,956.57
2016-11-18T06:29:35.617Z,956.63
2016-11-18T06:30:35.578Z,956.72
2016-11-18T06:31:35.540Z,956.71
2016-11-18T06:32:35.502Z,956.74
2016-11-18T06:33:35.465Z,956.71
2016-11-18T06:34:35.428Z,956.76
2016-11-18T06:35:35.390Z,956.67
2016-11-18T06:36:35.352Z,956.66
2016-11-18T06:37:35.315Z,956.61
2016-11-18T06:38:35.280Z,956.63
2016-11-18T06:39:35.242Z,956.63
2016-11-18T06:40:35.203Z,956.6
2016-11-18T06:41:35.166Z,956.56
2016-11-18T06:42:35.127Z,956.5
2016-11-18T06:43:35.090Z,956.55
2016-11-18T06:44:35.053Z,956.59
2016-11-18T06:45:35.015Z,956.68
2016-11-18T06:46:34.979Z,956.65
2016-11-18T06:47:34.942Z,956.68
2016-11-18T06:48:34.904Z,956.58
2016-11-18T06:49:34.867Z,956.53
2016-11-18T06:50:34.832Z,956.47
2016-11-18T06:51:34.792Z,956.54
2016-11-18T06:52:34.757Z,956.62
2016-11-18T06:53:34.720Z,956.63
2016-11-18T06:54:34.685Z,956.59
2016-11-18T06:55:34.647Z,956.64
2016-11-18T06:56:34.613Z,956.61
2016-11-18T06:57:34.579Z,956.59
2016-11-18T06:58:34.540Z,956.55
2016-11-18T06:59:34.504Z,956.47
2016-11-18T07:00:34.469Z,956.5
2016-11-18T07:01:34.434Z,956.51
2016-11-18T07:02:34.399Z,956.44
2016-11-18T07:03:34.364Z,956.42
2016-11-18T07:04:34.329Z,956.36
2016-11-18T07:05:34.294Z,956.35
2016-11-18T07:06:34.259Z,956.34
2016-11-18T07:07:34.224Z,956.42
2016-11-18T07:08:34.190Z,956.36
2016-11-18T07:09:34.155Z,956.39
2016-11-18T07:10:34.121Z,956.33
2016-11-18T07:11:34.085Z,956.42
2016-11-18T07:12:34.051Z,956.41
2016-11-18T07:13:34.014Z,956.47
2016-11-18T07:14:33.981Z,956.48
2016-11-18T07:15:33.947Z,956.52
2016-11-18T07:16:33.909Z,956.55
2016-11-18T07:17:33.875Z,956.62
2016-11-18T07:18:33.840Z,956.63
2016-11-18T07:19:33.806Z,956.61
2016-11-18T07:20:33.771Z,956.6
2016-11-18T07:21:33.735Z,956.67
2016-11-18T07:22:33.702Z,956.67
2016-11-18T07:23:33.667Z,956.6
2016-11-18T07:24:33.631Z,956.59
2016-11-18T07:25:33.596Z,956.6
2016-11-18T07:26:33.563Z,956.66
2016-11-18T07:27:33.526Z,956.61
2016-11-18T07:28:33.492Z,956.58
2016-11-18T07:29:33.457Z,956.61
2016-11-18T07:30:33.422Z,956.65
2016-11-18T07:31:33.387Z,956.6
2016-11-18T07:32:33.354Z,956.61
2016-11-18T07:33:33.317Z,956.65
2016-11-18T07:34:33.283Z,956.64
2016-11-18T07:35:33.250Z,956.65
2016-11-18T07:36:33.212Z,956.68
2016-11-18T07:37:33.177Z,956.67
2016-11-18T07:38:33.141Z,956.65
2016-11-18T07:39:33.107Z,956.76
2016-11-18T07:40:33.071Z,956.68
2016-11-18T07:41:33.037Z,956.73
2016-11-18T07:42:33.000Z,956.72
2016-11-18T07:43:32.964Z,956.7
2016-11-18T07:44:32.931Z,956.65
2016-11-18T07:45:32.892Z,956.63
2016-11-18T07:46:32.857Z,956.51
2016-11-18T07:47:32.821Z,956.55
2016-11-18T07:48:32.787Z,956.53
2016-11-18T07:49:32.748Z,956.63
2016-11-18T07:50:32.715Z,956.56
2016-11-18T07:51:32.679Z,956.53
2016-11-18T07:52:32.643Z,956.57
2016-11-18T07:53:32.607Z,956.53
2016-11-18T07:54:32.572Z,956.52
2016-11-18T07:55:32.536Z,956.6
2016-11-18T07:56:32.501Z,956.66
2016-11-18T07:57:32.466Z,956.65
2016-11-18T07:58:32.427Z,956.59
2016-11-18T07:59:32.392Z,956.67
2016-11-18T08:00:32.354Z,956.71
2016-11-18T08:01:32.327Z,956.72
2016-11-18T08:02:32.283Z,956.71
2016-11-18T08:03:32.248Z,956.78
2016-11-18T08:04:32.210Z,956.69
2016-11-18T08:05:32.176Z,956.73
2016-11-18T08:06:32.139Z,956.7
2016-11-18T08:07:32.102Z,956.7
2016-11-18T08:08:32.067Z,956.74
2016-11-18T08:09:32.031Z,956.68
2016-11-18T08:10:31.994Z,956.68
2016-11-18T08:11:31.960Z,956.66
2016-11-18T08:12:31.922Z,956.72
2016-11-18T08:13:31.887Z,956.7
2016-11-18T08:14:31.851Z,956.74
2016-11-18T08:15:31.815Z,956.78
2016-11-18T08:16:31.778Z,956.72
2016-11-18T08:17:31.750Z,956.69
2016-11-18T08:18:31.705Z,956.74
2016-11-18T08:19:31.671Z,956.68
2016-11-18T08:20:31.634Z,956.7
2016-11-18T08:21:31.600Z,956.72
2016-11-18T08:22:31.562Z,956.73
2016-11-18T08:23:31.527Z,956.79
2016-11-18T08:24:31.491Z,956.81
2016-11-18T08:25:31.455Z,956.82
2016-11-18T08:26:31.418Z,956.82
2016-11-18T08:27:31.383Z,956.83
2016-11-18T08:28:31.347Z,956.8
2016-11-18T08:29:31.310Z,956.86
2016-11-18T08:30:31.277Z,956.94
2016-11-18T08:31:31.239Z,956.88
2016-11-18T08:32:31.202Z,956.88
2016-11-18T08:33:31.165Z,956.87
2016-11-18T08:34:31.132Z,956.88
2016-11-18T08:35:31.094Z,956.82
2016-11-18T08:36:31.060Z,956.85
2016-11-18T08:37:31.021Z,956.84
2016-11-18T08:38:30.988Z,956.79
2016-11-18T08:39:30.952Z,956.79
2016-11-18T08:40:30.915Z,956.77
2016-11-18T08:41:30.878Z,956.77
2016-11-18T08:42:30.843Z,956.73
2016-11-18T08:43:30.808Z,956.68
2016-11-18T08:44:30.771Z,956.67
2016-11-18T08:45:30.734Z,956.56
2016-11-18T08:46:30.700Z,956.52
2016-11-18T08:47:30.663Z,956.54
2016-11-18T08:48:30.628Z,956.53
2016-11-18T08:49:30.593Z,956.49
2016-11-18T08:50:30.558Z,956.55
2016-11-18T08:51:30.519Z,956.47
2016-11-18T08:52:30.483Z,956.51
2016-11-18T08:53:30.449Z,956.43
2016-11-18T08:54:30.414Z,956.42
2016-11-18T08:55:30.377Z,956.33
2016-11-18T08:56:30.342Z,956.31
2016-11-18T08:57:30.305Z,956.31
2016-11-18T08:58:30.268Z,956.43
2016-11-18T08:59:30.233Z,956.39
2016-11-18T09:00:30.197Z,956.35
2016-11-18T09:01:30.161Z,956.36
2016-11-18T09:02:30.127Z,956.38
2016-11-18T09:03:30.091Z,956.35
2016-11-18T09:04:30.055Z,956.3
2016-11-18T09:05:30.035Z,956.32
2016-11-18T09:06:29.983Z,956.29
2016-11-18T09:07:29.947Z,956.33
2016-11-18T09:08:29.912Z,956.35
2016-11-18T09:09:29.876Z,956.4
2016-11-18T09:10:29.841Z,956.43
2016-11-18T09:11:29.805Z,956.53
2016-11-18T09:12:29.769Z,956.51
2016-11-18T09:13:29.732Z,956.5
2016-11-18T09:14:29.696Z,956.43
2016-11-18T09:15:29.663Z,956.44
2016-11-18T09:16:29.628Z,956.4
2016-11-18T09:17:29.591Z,956.36
2016-11-18T09:18:29.555Z,956.36
2016-11-18T09:19:29.518Z,956.31
2016-11-18T09:20:29.484Z,956.27
2016-11-18T09:21:29.447Z,956.28
2016-11-18T09:22:29.412Z,956.22
2016-11-18T09:23:29.378Z,956.19
2016-11-18T09:24:29.345Z,956.09
2016-11-18T09:25:29.304Z,956.08
2016-11-18T09:26:29.269Z,956.14
2016-11-18T09:27:29.234Z,956.1
2016-11-18T09:28:29.198Z,956
2016-11-18T09:29:29.162Z,955.89
2016-11-18T09:30:29.126Z,956.01
2016-11-18T09:31:29.090Z,956.06
2016-11-18T09:32:29.056Z,956.09
2016-11-18T09:33:29.020Z,956.11
2016-11-18T09:34:28.984Z,956.07
2016-11-18T09:35:28.948Z,956
2016-11-18T09:36:28.917Z,956
2016-11-18T09:37:28.880Z,956.03
2016-11-18T09:38:28.845Z,955.96
2016-11-18T09:39:28.805Z,955.92
2016-11-18T09:40:28.770Z,955.98
2016-11-18T09:41:28.734Z,956
2016-11-18T09:42:28.699Z,956.06
2016-11-18T09:43:28.664Z,956.13
2016-11-18T09:44:28.629Z,956.16
2016-11-18T09:45:28.593Z,956.09
2016-11-18T09:46:28.557Z,956.11
2016-11-18T09:47:28.524Z,956.07
2016-11-18T09:48:28.488Z,956.08
2016-11-18T09:49:28.451Z,956.04
2016-11-18T09:50:28.416Z,956.07
2016-11-18T09:51:28.380Z,956.13
2016-11-18T09:52:28.345Z,956.12
2016-11-18T09:53:28.309Z,956.15
2016-11-18T09:54:28.275Z,956.18
2016-11-18T09:55:28.240Z,956.24
2016-11-18T09:56:28.203Z,956.24
2016-11-18T09:57:28.168Z,956.25
2016-11-18T09:58:28.132Z,956.22
2016-11-18T09:59:28.097Z,956.22
2016-11-18T10:00:28.061Z,956.21
2016-11-18T10:01:28.027Z,956.21
2016-11-18T10:02:27.993Z,956.22
2016-11-18T10:03:27.956Z,956.23
2016-11-18T10:04:27.921Z,956.21
2016-11-18T10:05:27.887Z,956.21
2016-11-18T10:06:27.850Z,956.14
2016-11-18T10:07:27.815Z,956.14
2016-11-18T10:08:27.780Z,956.1
2016-11-18T10:09:27.746Z,956.13
2016-11-18T10:10:27.712Z,956.11
2016-11-18T10:11:27.675Z,956.07
2016-11-18T10:12:27.639Z,956.05
2016-11-18T10:13:27.609Z,956.02
2016-11-18T10:14:27.570Z,956.08
2016-11-18T10:15:27.534Z,956.07
2016-11-18T10:16:27.499Z,956.09
2016-11-18T10:17:27.464Z,956.04
2016-11-18T10:18:27.431Z,956.07
2016-11-18T10:19:27.395Z,956.11
2016-11-18T10:20:27.359Z,956.16
2016-11-18T10:21:27.324Z,956.28
2016-11-18T10:22:27.291Z,956.29
2016-11-18T10:23:27.256Z,956.34
2016-11-18T10:24:27.220Z,956.32
2016-11-18T10:25:27.187Z,956.36
2016-11-18T10:26:27.149Z,956.29
2016-11-18T10:27:27.113Z,956.28
2016-11-18T10:28:27.080Z,956.23
2016-11-18T10:29:27.046Z,956.19
2016-11-18T10:30:27.010Z,956.18
2016-11-18T10:31:26.976Z,956.13
2016-11-18T10:32:26.940Z,956.11
2016-11-18T10:33:26.906Z,956.06
2016-11-18T10:34:26.872Z,956.05
2016-11-18T10:35:26.836Z,956.09
2016-11-18T10:36:26.802Z,956.08
2016-11-18T10:37:26.767Z,956.12
2016-11-18T10:38:26.732Z,956.06
2016-11-18T10:39:26.696Z,956.04
2016-11-18T10:40:26.661Z,956.13
2016-11-18T10:41:26.626Z,956.13
2016-11-18T10:42:26.590Z,956.15
2016-11-18T10:43:26.556Z,956.18
2016-11-18T10:44:26.520Z,956.25
2016-11-18T10:45:26.488Z,956.26
2016-11-18T10:46:26.451Z,956.26
2016-11-18T10:47:26.416Z,956.28
2016-11-18T10:48:26.381Z,956.27
2016-11-18T10:49:26.348Z,956.28
2016-11-18T10:50:26.315Z,956.28
2016-11-18T10:51:26.277Z,956.26
2016-11-18T10:52:26.242Z,956.34
2016-11-18T10:53:26.205Z,956.34
2016-11-18T10:54:26.173Z,956.36
2016-11-18T10:55:26.136Z,956.4
2016-11-18T10:56:26.102Z,956.46
2016-11-18T10:57:26.066Z,956.45
2016-11-18T10:58:26.032Z,956.47
2016-11-18T10:59:25.996Z,956.48
2016-11-18T11:01:25.927Z,956.54
2016-11-18T11:02:25.897Z,956.51
2016-11-18T11:03:25.856Z,956.57
2016-11-18T11:04:25.821Z,956.58
2016-11-18T11:05:25.786Z,956.59
2016-11-18T11:06:25.750Z,956.53
2016-11-18T11:07:25.716Z,956.53
2016-11-18T11:08:25.683Z,956.61
2016-11-18T11:09:25.646Z,956.61
2016-11-18T11:10:25.611Z,956.66
2016-11-18T11:11:25.578Z,956.7
2016-11-18T11:12:25.542Z,956.69
2016-11-18T11:13:25.508Z,956.68
2016-11-18T11:14:25.471Z,956.69
2016-11-18T11:15:25.437Z,956.66
2016-11-18T11:16:25.401Z,956.67
2016-11-18T11:17:25.365Z,956.65
2016-11-18T11:18:25.331Z,956.59
2016-11-18T11:19:25.296Z,956.59
2016-11-18T11:20:25.261Z,956.6
2016-11-18T11:21:25.226Z,956.54
2016-11-18T11:22:25.191Z,956.45
2016-11-18T11:23:25.155Z,956.41
2016-11-18T11:24:25.120Z,956.48
2016-11-18T11:25:25.085Z,956.43
2016-11-18T11:26:25.050Z,956.54
2016-11-18T11:27:25.016Z,956.55
2016-11-18T11:28:24.978Z,956.61
2016-11-18T11:29:24.945Z,956.57
2016-11-18T11:30:24.910Z,956.62
2016-11-18T11:31:24.874Z,956.52
2016-11-18T11:32:24.839Z,956.53
2016-11-18T11:33:24.804Z,956.5
2016-11-18T11:34:24.769Z,956.53
2016-11-18T11:35:24.734Z,956.47
2016-11-18T11:36:24.698Z,956.48
2016-11-18T11:37:24.663Z,956.51
2016-11-18T11:38:24.628Z,956.52
2016-11-18T11:39:24.593Z,956.53
2016-11-18T11:40:24.558Z,956.47
2016-11-18T11:41:24.522Z,956.46
2016-11-18T11:42:24.488Z,956.41
2016-11-18T11:43:24.451Z,956.41
2016-11-18T11:44:24.418Z,956.31
2016-11-18T11:45:24.382Z,956.26
2016-11-18T11:46:24.347Z,956.19
2016-11-18T11:47:24.309Z,956.17
2016-11-18T11:48:24.276Z,956.21
2016-11-18T11:49:24.241Z,956.14
2016-11-18T11:50:24.204Z,956.08
2016-11-18T11:51:24.170Z,956.04
2016-11-18T11:52:24.135Z,955.97
2016-11-18T11:53:24.099Z,955.98
2016-11-18T11:54:24.066Z,955.97
2016-11-18T11:55:24.029Z,956.07
2016-11-18T11:56:23.995Z,956.19
2016-11-18T11:57:23.959Z,956.22
2016-11-18T11:58:23.924Z,956.34
2016-11-18T11:59:23.889Z,956.34
2016-11-18T12:00:23.855Z,956.28
2016-11-18T12:01:23.819Z,956.16
2016-11-18T12:02:23.784Z,956.08
2016-11-18T12:03:23.748Z,956.12
2016-11-18T12:04:23.712Z,956.01
2016-11-18T12:05:23.676Z,956.02
2016-11-18T12:06:23.642Z,955.94
2016-11-18T12:07:23.607Z,955.91
2016-11-18T12:08:23.572Z,955.91
2016-11-18T12:09:23.535Z,956.01
2016-11-18T12:10:23.500Z,956.14
2016-11-18T12:11:23.465Z,956.2
2016-11-18T12:12:23.429Z,956.29
2016-11-18T12:13:23.395Z,956.35
2016-11-18T12:14:23.358Z,956.37
2016-11-18T12:15:23.323Z,956.38
2016-11-18T12:16:23.288Z,956.4
2016-11-18T12:17:23.251Z,956.3
2016-11-18T12:18:23.219Z,956.39
2016-11-18T12:19:23.181Z,956.43
2016-11-18T12:20:23.147Z,956.48
2016-11-18T12:21:23.109Z,956.41
2016-11-18T12:22:23.076Z,956.44
2016-11-18T12:23:23.038Z,956.43
2016-11-18T12:24:23.003Z,956.41
2016-11-18T12:25:22.968Z,956.4
2016-11-18T12:26:22.933Z,956.46
2016-11-18T12:27:22.896Z,956.42
2016-11-18T12:28:22.861Z,956.41
2016-11-18T12:29:22.826Z,956.33
2016-11-18T12:30:22.790Z,956.32
2016-11-18T12:31:22.754Z,956.31
2016-11-18T12:32:22.719Z,956.24